Dream Angel — 3EEV — position and weather

sailwx.info

Track history (hours):
 
Tides and Currents Weather Stations Pressure Air Temp Water Temp Dewpoint Dewpoint Depression Visibility Wind Speed Wind Dir Waves Ship Positions

Dream Angel

Last reported at 2017-May-25 08:25 UTC. Time now 2017-May-25 08:35 UTC.
Position N 34°36' E 135°19'.

Length 187 m; draft 7 m.

Type: Cargo ship. MMSI: 371820000.

Date/timePositionNaut miles runAvg speedWind from/ knotsBaromVisibWave heightAir tempDewpointWater temp
2017-May-25 08:25N 34°36' E 135°19'0 0.1
2017-May-25 07:55N 34°36' E 135°19'2 4.4
2017-May-25 07:30N 34°38' E 135°19'3 6.8
2017-May-25 07:00N 34°41' E 135°18'0 0.9
2017-May-25 06:28N 34°42' E 135°17'0 0.0
2017-May-25 05:58N 34°42' E 135°17'0 0.0
2017-May-25 05:28N 34°42' E 135°17'0 0.0
2017-May-25 04:52N 34°42' E 135°17'0 0.0
2017-May-25 04:28N 34°42' E 135°17'0 0.0
2017-May-25 03:58N 34°42' E 135°17'0 0.0
2017-May-25 03:28N 34°42' E 135°17'0 0.0
2017-May-25 02:52N 34°42' E 135°17'0 0.0
2017-May-25 02:28N 34°42' E 135°17'0 0.0
2017-May-25 01:52N 34°42' E 135°17'0 0.0
2017-May-25 01:22N 34°42' E 135°17'0 0.0
2017-May-25 00:58N 34°42' E 135°17'0 0.0
2017-May-25 00:28N 34°42' E 135°17'0 0.0
2017-May-24 23:59N 34°41' E 135°17'1 3.0
2017-May-24 23:30N 34°41' E 135°18'3 6.3
2017-May-24 23:00N 34°37' E 135°18'713.7
2017-May-24 22:30N 34°32' E 135°13'816.2
2017-May-24 22:00N 34°26' E 135°06'817.0
2017-May-24 21:30N 34°20' E 134°60'714.9
2017-May-24 21:01N 34°12' E 134°60'4 8.3
2017-May-24 20:30N 34°08' E 134°59'510.4
2017-May-24 20:00N 34°03' E 134°58'612.3
2017-May-24 19:29N 33°56' E 134°57'  
Track history (hours):
 
Tides and Currents Weather Stations Pressure Air Temp Water Temp Dewpoint Dewpoint Depression Visibility Wind Speed Wind Dir Waves Ship Positions

Dream Angel

Last reported at 2017-May-25 08:25 UTC. Time now 2017-May-25 08:35 UTC.
Position N 34°36' E 135°19'.

Length 187 m; draft 7 m.

Type: Cargo ship. MMSI: 371820000.

Date/timePositionNaut miles runAvg speedWind from/ knotsBaromVisibWave heightAir tempDewpointWater temp
2017-May-25 08:25N 34°36' E 135°19'0 0.1
2017-May-25 07:55N 34°36' E 135°19'2 4.4
2017-May-25 07:30N 34°38' E 135°19'3 6.8
2017-May-25 07:00N 34°41' E 135°18'0 0.9
2017-May-25 06:28N 34°42' E 135°17'0 0.0
2017-May-25 05:58N 34°42' E 135°17'0 0.0
2017-May-25 05:28N 34°42' E 135°17'0 0.0
2017-May-25 04:52N 34°42' E 135°17'0 0.0
2017-May-25 04:28N 34°42' E 135°17'0 0.0
2017-May-25 03:58N 34°42' E 135°17'0 0.0
2017-May-25 03:28N 34°42' E 135°17'0 0.0
2017-May-25 02:52N 34°42' E 135°17'0 0.0
2017-May-25 02:28N 34°42' E 135°17'0 0.0
2017-May-25 01:52N 34°42' E 135°17'0 0.0
2017-May-25 01:22N 34°42' E 135°17'0 0.0
2017-May-25 00:58N 34°42' E 135°17'0 0.0
2017-May-25 00:28N 34°42' E 135°17'0 0.0
2017-May-24 23:59N 34°41' E 135°17'1 3.0
2017-May-24 23:30N 34°41' E 135°18'3 6.3
2017-May-24 23:00N 34°37' E 135°18'713.7
2017-May-24 22:30N 34°32' E 135°13'816.2
2017-May-24 22:00N 34°26' E 135°06'817.0
2017-May-24 21:30N 34°20' E 134°60'714.9
2017-May-24 21:01N 34°12' E 134°60'4 8.3
2017-May-24 20:30N 34°08' E 134°59'510.4
2017-May-24 20:00N 34°03' E 134°58'612.3
2017-May-24 19:29N 33°56' E 134°57'  

Dump ship's entire track history